Terminal Aerodrome Forecast
Issued by NWS Caribou, ME

Current Version | Previous Version | Text Only | Print | Product List | Glossary On
Versions: 1 2 3 4 5 6 7 8 9 10 11 12 13 14 15 16
000 FTUS41 KCAR 180600 AAA TAFBGR TAF AMD KBGR 180642Z 1807/1906 VRB03KT 5SM BR BKN002 FM180700 20004KT 1SM BR BKN002 FM181330 25004KT P6SM SCT008 FM181800 31008KT P6SM SCT250=

USA.gov is the U.S. government's official web portal to all federal, state and local government web resources and services.